sensor_id;sensor_type;location;lat;lon;timestamp;pressure;altitude;pressure_sealevel;temperature;humidity
7962;BME280;4026;43.652;24.906;2023-09-19T00:01:39;99495.94;;;17.40;99.82
7962;BME280;4026;43.652;24.906;2023-09-19T00:04:08;99500.72;;;17.35;99.72
7962;BME280;4026;43.652;24.906;2023-09-19T00:06:35;99498.81;;;17.37;99.66
7962;BME280;4026;43.652;24.906;2023-09-19T00:09:02;99499.25;;;17.33;99.11
7962;BME280;4026;43.652;24.906;2023-09-19T00:11:29;99501.88;;;17.23;98.92
7962;BME280;4026;43.652;24.906;2023-09-19T00:13:56;99496.56;;;17.25;99.21
7962;BME280;4026;43.652;24.906;2023-09-19T00:16:24;99501.50;;;17.18;99.30
7962;BME280;4026;43.652;24.906;2023-09-19T00:18:52;99507.34;;;17.20;99.52
7962;BME280;4026;43.652;24.906;2023-09-19T00:21:20;99498.63;;;17.21;99.76
7962;BME280;4026;43.652;24.906;2023-09-19T00:23:47;99486.09;;;17.26;99.82
7962;BME280;4026;43.652;24.906;2023-09-19T00:26:14;99488.69;;;17.26;100.00
7962;BME280;4026;43.652;24.906;2023-09-19T00:28:43;99492.31;;;17.33;100.00
7962;BME280;4026;43.652;24.906;2023-09-19T00:31:10;99494.88;;;17.33;100.00
7962;BME280;4026;43.652;24.906;2023-09-19T00:33:37;99489.59;;;17.35;100.00
7962;BME280;4026;43.652;24.906;2023-09-19T00:36:04;99490.41;;;17.35;99.79
7962;BME280;4026;43.652;24.906;2023-09-19T00:38:32;99492.00;;;17.36;100.00
7962;BME280;4026;43.652;24.906;2023-09-19T00:40:59;99487.13;;;17.33;100.00
7962;BME280;4026;43.652;24.906;2023-09-19T00:43:26;99484.41;;;17.35;100.00
7962;BME280;4026;43.652;24.906;2023-09-19T00:45:55;99485.41;;;17.24;100.00
7962;BME280;4026;43.652;24.906;2023-09-19T00:48:22;99489.66;;;17.25;100.00
7962;BME280;4026;43.652;24.906;2023-09-19T00:50:54;99492.88;;;17.27;100.00
7962;BME280;4026;43.652;24.906;2023-09-19T00:53:23;99492.59;;;17.30;100.00
7962;BME280;4026;43.652;24.906;2023-09-19T00:55:54;99496.81;;;17.31;100.00
7962;BME280;4026;43.652;24.906;2023-09-19T00:58:21;99489.06;;;17.31;100.00
7962;BME280;4026;43.652;24.906;2023-09-19T01:00:48;99488.09;;;17.32;100.00
7962;BME280;4026;43.652;24.906;2023-09-19T01:03:16;99485.81;;;17.29;100.00
7962;BME280;4026;43.652;24.906;2023-09-19T01:05:43;99491.78;;;17.30;100.00
7962;BME280;4026;43.652;24.906;2023-09-19T01:08:10;99489.06;;;17.31;100.00
7962;BME280;4026;43.652;24.906;2023-09-19T01:10:43;99487.28;;;17.32;100.00
7962;BME280;4026;43.652;24.906;2023-09-19T01:13:22;99489.06;;;17.31;100.00
7962;BME280;4026;43.652;24.906;2023-09-19T01:16:02;99477.94;;;17.31;100.00
7962;BME280;4026;43.652;24.906;2023-09-19T01:18:35;99477.75;;;17.32;100.00
7962;BME280;4026;43.652;24.906;2023-09-19T01:21:11;99478.72;;;17.31;100.00
7962;BME280;4026;43.652;24.906;2023-09-19T01:24:00;99470.81;;;17.33;100.00
7962;BME280;4026;43.652;24.906;2023-09-19T01:26:50;99476.16;;;17.31;100.00
7962;BME280;4026;43.652;24.906;2023-09-19T01:29:28;99473.31;;;17.25;100.00
7962;BME280;4026;43.652;24.906;2023-09-19T01:32:04;99467.50;;;17.23;100.00
7962;BME280;4026;43.652;24.906;2023-09-19T01:34:43;99470.88;;;17.23;100.00
7962;BME280;4026;43.652;24.906;2023-09-19T01:37:12;99469.25;;;17.22;100.00
7962;BME280;4026;43.652;24.906;2023-09-19T01:39:39;99466.00;;;17.20;100.00
7962;BME280;4026;43.652;24.906;2023-09-19T01:42:12;99464.22;;;17.20;100.00
7962;BME280;4026;43.652;24.906;2023-09-19T01:44:50;99466.81;;;17.20;100.00
7962;BME280;4026;43.652;24.906;2023-09-19T01:47:27;99470.88;;;17.23;100.00
7962;BME280;4026;43.652;24.906;2023-09-19T01:50:02;99468.44;;;17.22;100.00
7962;BME280;4026;43.652;24.906;2023-09-19T01:52:38;99469.09;;;17.24;100.00
7962;BME280;4026;43.652;24.906;2023-09-19T01:55:09;99470.88;;;17.23;100.00
7962;BME280;4026;43.652;24.906;2023-09-19T01:57:42;99469.53;;;17.19;100.00
7962;BME280;4026;43.652;24.906;2023-09-19T02:00:13;99464.66;;;17.16;100.00
7962;BME280;4026;43.652;24.906;2023-09-19T02:02:44;99460.72;;;17.12;100.00
7962;BME280;4026;43.652;24.906;2023-09-19T02:05:13;99469.44;;;17.11;100.00
7962;BME280;4026;43.652;24.906;2023-09-19T02:07:40;99478.53;;;17.15;100.00
7962;BME280;4026;43.652;24.906;2023-09-19T02:10:07;99475.94;;;17.15;100.00
7962;BME280;4026;43.652;24.906;2023-09-19T02:12:37;99475.25;;;17.13;100.00
7962;BME280;4026;43.652;24.906;2023-09-19T02:15:05;99475.44;;;17.11;100.00
7962;BME280;4026;43.652;24.906;2023-09-19T02:17:32;99473.66;;;17.12;100.00
7962;BME280;4026;43.652;24.906;2023-09-19T02:20:00;99478.81;;;17.12;100.00
7962;BME280;4026;43.652;24.906;2023-09-19T02:22:29;99482.66;;;17.08;100.00
7962;BME280;4026;43.652;24.906;2023-09-19T02:24:56;99479.97;;;17.00;100.00
7962;BME280;4026;43.652;24.906;2023-09-19T02:27:26;99486.47;;;17.04;100.00
7962;BME280;4026;43.652;24.906;2023-09-19T02:29:52;99481.59;;;17.01;100.00
7962;BME280;4026;43.652;24.906;2023-09-19T02:32:19;99478.06;;;17.02;100.00
7962;BME280;4026;43.652;24.906;2023-09-19T02:34:46;99477.50;;;16.98;100.00
7962;BME280;4026;43.652;24.906;2023-09-19T02:37:15;99474.28;;;16.96;100.00
7962;BME280;4026;43.652;24.906;2023-09-19T02:39:44;99464.47;;;17.00;100.00
7962;BME280;4026;43.652;24.906;2023-09-19T02:42:11;99468.00;;;16.98;100.00
7962;BME280;4026;43.652;24.906;2023-09-19T02:44:38;99471.53;;;16.97;100.00
7962;BME280;4026;43.652;24.906;2023-09-19T02:47:05;99475.59;;;17.00;100.00
7962;BME280;4026;43.652;24.906;2023-09-19T02:49:32;99465.00;;;17.03;100.00
7962;BME280;4026;43.652;24.906;2023-09-19T02:52:00;99467.72;;;17.02;100.00
7962;BME280;4026;43.652;24.906;2023-09-19T02:54:30;99462.28;;;17.05;100.00
7962;BME280;4026;43.652;24.906;2023-09-19T02:56:57;99457.09;;;17.05;100.00
7962;BME280;4026;43.652;24.906;2023-09-19T02:59:24;99452.22;;;17.02;100.00
7962;BME280;4026;43.652;24.906;2023-09-19T03:01:51;99455.75;;;17.01;100.00
7962;BME280;4026;43.652;24.906;2023-09-19T03:04:19;99445.41;;;17.01;100.00
7962;BME280;4026;43.652;24.906;2023-09-19T03:06:46;99437.81;;;16.99;100.00
7962;BME280;4026;43.652;24.906;2023-09-19T03:09:14;99431.19;;;16.96;100.00
7962;BME280;4026;43.652;24.906;2023-09-19T03:11:42;99427.50;;;16.99;100.00
7962;BME280;4026;43.652;24.906;2023-09-19T03:14:11;99428.13;;;17.01;100.00
7962;BME280;4026;43.652;24.906;2023-09-19T03:16:40;99431.28;;;17.05;100.00
7962;BME280;4026;43.652;24.906;2023-09-19T03:19:07;99439.16;;;17.03;100.00
7962;BME280;4026;43.652;24.906;2023-09-19T03:21:35;99441.22;;;17.00;100.00
7962;BME280;4026;43.652;24.906;2023-09-19T03:24:04;99432.78;;;16.97;100.00
7962;BME280;4026;43.652;24.906;2023-09-19T03:26:32;99439.56;;;16.98;100.00
7962;BME280;4026;43.652;24.906;2023-09-19T03:29:03;99446.66;;;16.96;100.00
7962;BME280;4026;43.652;24.906;2023-09-19T03:31:33;99441.25;;;16.90;100.00
7962;BME280;4026;43.652;24.906;2023-09-19T03:34:02;99444.09;;;16.87;100.00
7962;BME280;4026;43.652;24.906;2023-09-19T03:36:29;99441.69;;;16.85;100.00
7962;BME280;4026;43.652;24.906;2023-09-19T03:38:56;99446.84;;;16.85;100.00
7962;BME280;4026;43.652;24.906;2023-09-19T03:41:23;99440.06;;;16.84;100.00
7962;BME280;4026;43.652;24.906;2023-09-19T03:43:50;99438.41;;;16.83;100.00
7962;BME280;4026;43.652;24.906;2023-09-19T03:46:18;99436.81;;;16.82;100.00
7962;BME280;4026;43.652;24.906;2023-09-19T03:48:45;99436.00;;;16.82;100.00
7962;BME280;4026;43.652;24.906;2023-09-19T03:51:12;99426.22;;;16.75;100.00
7962;BME280;4026;43.652;24.906;2023-09-19T03:53:39;99431.13;;;16.79;100.00
7962;BME280;4026;43.652;24.906;2023-09-19T03:56:05;99432.22;;;16.76;100.00
7962;BME280;4026;43.652;24.906;2023-09-19T03:58:33;99431.91;;;16.69;100.00
7962;BME280;4026;43.652;24.906;2023-09-19T04:01:04;99431.09;;;16.69;100.00
7962;BME280;4026;43.652;24.906;2023-09-19T04:03:33;99435.34;;;16.70;100.00
7962;BME280;4026;43.652;24.906;2023-09-19T04:06:11;99429.50;;;16.68;100.00
7962;BME280;4026;43.652;24.906;2023-09-19T04:08:38;99431.78;;;16.71;100.00
7962;BME280;4026;43.652;24.906;2023-09-19T04:11:05;99443.50;;;16.65;100.00
7962;BME280;4026;43.652;24.906;2023-09-19T04:13:32;99442.28;;;16.60;100.00
7962;BME280;4026;43.652;24.906;2023-09-19T04:15:58;99449.91;;;16.51;100.00
7962;BME280;4026;43.652;24.906;2023-09-19T04:18:26;99453.56;;;16.49;100.00
7962;BME280;4026;43.652;24.906;2023-09-19T04:20:54;99451.03;;;16.39;100.00
7962;BME280;4026;43.652;24.906;2023-09-19T04:23:21;99451.03;;;16.39;100.00
7962;BME280;4026;43.652;24.906;2023-09-19T04:25:48;99444.25;;;16.38;100.00
7962;BME280;4026;43.652;24.906;2023-09-19T04:28:16;99443.28;;;16.39;100.00
7962;BME280;4026;43.652;24.906;2023-09-19T04:30:43;99449.13;;;16.41;100.00
7962;BME280;4026;43.652;24.906;2023-09-19T04:33:10;99453.19;;;16.34;100.00
7962;BME280;4026;43.652;24.906;2023-09-19T04:35:37;99435.84;;;16.26;100.00
7962;BME280;4026;43.652;24.906;2023-09-19T04:38:05;99441.00;;;16.17;100.00
7962;BME280;4026;43.652;24.906;2023-09-19T04:40:32;99446.59;;;16.12;100.00
7962;BME280;4026;43.652;24.906;2023-09-19T04:42:59;99443.22;;;16.12;100.00
7962;BME280;4026;43.652;24.906;2023-09-19T04:45:27;99444.81;;;16.13;100.00
7962;BME280;4026;43.652;24.906;2023-09-19T04:47:55;99450.41;;;16.18;100.00
7962;BME280;4026;43.652;24.906;2023-09-19T04:50:22;99444.28;;;16.19;100.00
7962;BME280;4026;43.652;24.906;2023-09-19T04:52:52;99443.72;;;16.25;100.00
7962;BME280;4026;43.652;24.906;2023-09-19T04:55:20;99444.53;;;16.35;100.00
7962;BME280;4026;43.652;24.906;2023-09-19T04:57:48;99448.84;;;16.44;100.00
7962;BME280;4026;43.652;24.906;2023-09-19T05:00:16;99455.34;;;16.58;100.00
7962;BME280;4026;43.652;24.906;2023-09-19T05:02:44;99451.75;;;16.69;100.00
7962;BME280;4026;43.652;24.906;2023-09-19T05:05:11;99449.16;;;16.88;100.00
7962;BME280;4026;43.652;24.906;2023-09-19T05:07:40;99455.63;;;17.02;100.00
7962;BME280;4026;43.652;24.906;2023-09-19T05:10:08;99457.84;;;17.15;100.00
7962;BME280;4026;43.652;24.906;2023-09-19T05:12:37;99454.50;;;17.32;100.00
7962;BME280;4026;43.652;24.906;2023-09-19T05:15:04;99454.22;;;17.35;100.00
7962;BME280;4026;43.652;24.906;2023-09-19T05:17:32;99447.56;;;17.51;100.00
7962;BME280;4026;43.652;24.906;2023-09-19T05:19:59;99441.00;;;17.74;100.00
7962;BME280;4026;43.652;24.906;2023-09-19T05:22:40;99432.63;;;17.90;100.00
7962;BME280;4026;43.652;24.906;2023-09-19T05:25:08;99446.28;;;17.82;100.00
7962;BME280;4026;43.652;24.906;2023-09-19T05:27:36;99445.19;;;17.85;100.00
7962;BME280;4026;43.652;24.906;2023-09-19T05:30:04;99443.28;;;17.87;100.00
7962;BME280;4026;43.652;24.906;2023-09-19T05:32:32;99440.88;;;17.94;100.00
7962;BME280;4026;43.652;24.906;2023-09-19T05:34:59;99441.97;;;18.09;100.00
7962;BME280;4026;43.652;24.906;2023-09-19T05:37:26;99434.63;;;18.22;100.00
7962;BME280;4026;43.652;24.906;2023-09-19T05:39:53;99430.75;;;18.44;100.00
7962;BME280;4026;43.652;24.906;2023-09-19T05:42:20;99439.09;;;18.64;100.00
7962;BME280;4026;43.652;24.906;2023-09-19T05:44:48;99436.63;;;18.81;100.00
7962;BME280;4026;43.652;24.906;2023-09-19T05:47:15;99432.25;;;18.81;100.00
7962;BME280;4026;43.652;24.906;2023-09-19T05:49:41;99427.25;;;18.88;100.00
7962;BME280;4026;43.652;24.906;2023-09-19T05:52:09;99435.72;;;18.98;100.00
7962;BME280;4026;43.652;24.906;2023-09-19T05:54:36;99434.50;;;19.18;100.00
7962;BME280;4026;43.652;24.906;2023-09-19T05:57:03;99434.03;;;19.31;100.00
7962;BME280;4026;43.652;24.906;2023-09-19T05:59:30;99423.06;;;19.37;99.28
7962;BME280;4026;43.652;24.906;2023-09-19T06:02:00;99427.72;;;19.34;97.63
7962;BME280;4026;43.652;24.906;2023-09-19T06:04:27;99424.66;;;19.38;98.32
7962;BME280;4026;43.652;24.906;2023-09-19T06:06:56;99428.88;;;19.48;98.95
7962;BME280;4026;43.652;24.906;2023-09-19T06:09:23;99429.38;;;19.51;97.22
7962;BME280;4026;43.652;24.906;2023-09-19T06:11:53;99424.72;;;19.55;99.56
7962;BME280;4026;43.652;24.906;2023-09-19T06:14:20;99429.56;;;19.58;98.72
7962;BME280;4026;43.652;24.906;2023-09-19T06:16:49;99428.78;;;19.74;95.59
7962;BME280;4026;43.652;24.906;2023-09-19T06:19:20;99430.09;;;19.94;94.58
7962;BME280;4026;43.652;24.906;2023-09-19T06:21:48;99432.69;;;20.02;93.50
7962;BME280;4026;43.652;24.906;2023-09-19T06:24:15;99425.66;;;20.27;95.61
7962;BME280;4026;43.652;24.906;2023-09-19T06:26:41;99429.06;;;20.36;94.44
7962;BME280;4026;43.652;24.906;2023-09-19T06:29:09;99435.56;;;20.40;92.34
7962;BME280;4026;43.652;24.906;2023-09-19T06:31:38;99432.50;;;20.37;90.25
7962;BME280;4026;43.652;24.906;2023-09-19T06:34:05;99429.06;;;20.44;93.19
7962;BME280;4026;43.652;24.906;2023-09-19T06:36:33;99426.91;;;20.64;94.05
7962;BME280;4026;43.652;24.906;2023-09-19T06:39:00;99430.09;;;20.83;91.43
7962;BME280;4026;43.652;24.906;2023-09-19T06:41:29;99426.59;;;20.67;86.95
7962;BME280;4026;43.652;24.906;2023-09-19T06:43:57;99430.00;;;20.68;85.98
7962;BME280;4026;43.652;24.906;2023-09-19T06:46:24;99425.75;;;20.75;89.09
7962;BME280;4026;43.652;24.906;2023-09-19T06:48:51;99421.69;;;20.80;89.77
7962;BME280;4026;43.652;24.906;2023-09-19T06:51:18;99428.28;;;20.91;90.07
7962;BME280;4026;43.652;24.906;2023-09-19T06:53:46;99425.88;;;20.82;87.02
7962;BME280;4026;43.652;24.906;2023-09-19T06:56:13;99426.06;;;20.80;88.39
7962;BME280;4026;43.652;24.906;2023-09-19T06:58:40;99424.25;;;20.89;88.55
7962;BME280;4026;43.652;24.906;2023-09-19T07:01:08;99427.63;;;20.97;88.70
7962;BME280;4026;43.652;24.906;2023-09-19T07:03:35;99433.41;;;21.08;86.83
7962;BME280;4026;43.652;24.906;2023-09-19T07:06:02;99432.72;;;21.14;86.78
7962;BME280;4026;43.652;24.906;2023-09-19T07:08:30;99430.69;;;21.32;88.26
7962;BME280;4026;43.652;24.906;2023-09-19T07:10:58;99438.47;;;21.40;85.44
7962;BME280;4026;43.652;24.906;2023-09-19T07:13:25;99425.06;;;21.52;87.32
7962;BME280;4026;43.652;24.906;2023-09-19T07:15:52;99427.59;;;21.60;86.63
7962;BME280;4026;43.652;24.906;2023-09-19T07:18:19;99423.31;;;21.67;86.99
7962;BME280;4026;43.652;24.906;2023-09-19T07:20:46;99420.50;;;21.77;84.94
7962;BME280;4026;43.652;24.906;2023-09-19T07:23:15;99422.59;;;21.96;87.63
7962;BME280;4026;43.652;24.906;2023-09-19T07:25:43;99427.28;;;22.01;83.61
7962;BME280;4026;43.652;24.906;2023-09-19T07:28:13;99423.44;;;22.11;84.88
7962;BME280;4026;43.652;24.906;2023-09-19T07:30:39;99419.38;;;22.17;85.13
7962;BME280;4026;43.652;24.906;2023-09-19T07:33:07;99427.63;;;22.35;83.07
7962;BME280;4026;43.652;24.906;2023-09-19T07:35:36;99430.88;;;22.67;80.69
7962;BME280;4026;43.652;24.906;2023-09-19T07:38:05;99427.06;;;23.14;86.23
7962;BME280;4026;43.652;24.906;2023-09-19T07:40:32;99428.72;;;23.58;80.68
7962;BME280;4026;43.652;24.906;2023-09-19T07:42:58;99427.50;;;23.97;80.32
7962;BME280;4026;43.652;24.906;2023-09-19T07:45:28;99430.28;;;24.24;76.26
7962;BME280;4026;43.652;24.906;2023-09-19T07:47:55;99421.09;;;24.34;73.68
7962;BME280;4026;43.652;24.906;2023-09-19T07:50:22;99429.00;;;24.41;71.58
7962;BME280;4026;43.652;24.906;2023-09-19T07:52:52;99420.47;;;24.60;76.04
7962;BME280;4026;43.652;24.906;2023-09-19T07:55:20;99425.22;;;24.85;67.73
7962;BME280;4026;43.652;24.906;2023-09-19T07:57:49;99417.91;;;25.22;72.46
7962;BME280;4026;43.652;24.906;2023-09-19T08:00:16;99421.97;;;25.31;65.01
7962;BME280;4026;43.652;24.906;2023-09-19T08:02:44;99421.38;;;25.36;66.63
7962;BME280;4026;43.652;24.906;2023-09-19T08:05:13;99425.81;;;25.35;58.50
7962;BME280;4026;43.652;24.906;2023-09-19T08:07:42;99427.44;;;25.56;61.49
7962;BME280;4026;43.652;24.906;2023-09-19T08:10:10;99415.38;;;25.88;60.94
7962;BME280;4026;43.652;24.906;2023-09-19T08:12:38;99421.41;;;26.09;59.18
7962;BME280;4026;43.652;24.906;2023-09-19T08:15:12;99405.25;;;26.38;72.19
7962;BME280;4026;43.652;24.906;2023-09-19T08:17:38;99417.78;;;26.23;53.43
7962;BME280;4026;43.652;24.906;2023-09-19T08:20:08;99411.28;;;26.59;56.05
7962;BME280;4026;43.652;24.906;2023-09-19T08:22:42;99414.31;;;26.42;55.02
7962;BME280;4026;43.652;24.906;2023-09-19T08:25:11;99414.34;;;26.29;56.00
7962;BME280;4026;43.652;24.906;2023-09-19T08:27:38;99416.78;;;26.17;53.65
7962;BME280;4026;43.652;24.906;2023-09-19T08:30:06;99406.53;;;25.89;54.94
7962;BME280;4026;43.652;24.906;2023-09-19T08:32:33;99404.94;;;25.95;60.00
7962;BME280;4026;43.652;24.906;2023-09-19T08:35:00;99398.84;;;25.94;59.03
7962;BME280;4026;43.652;24.906;2023-09-19T08:37:28;99396.00;;;26.23;59.37
7962;BME280;4026;43.652;24.906;2023-09-19T08:39:54;99405.63;;;26.62;59.24
7962;BME280;4026;43.652;24.906;2023-09-19T08:42:21;99396.28;;;26.79;58.82
7962;BME280;4026;43.652;24.906;2023-09-19T08:44:50;99393.28;;;26.69;53.72
7962;BME280;4026;43.652;24.906;2023-09-19T08:47:26;99397.59;;;26.37;51.68
7962;BME280;4026;43.652;24.906;2023-09-19T08:50:04;99398.19;;;26.39;54.91
7962;BME280;4026;43.652;24.906;2023-09-19T08:52:41;99398.31;;;26.64;55.53
7962;BME280;4026;43.652;24.906;2023-09-19T08:55:12;99397.97;;;26.47;51.38
7962;BME280;4026;43.652;24.906;2023-09-19T08:57:46;99399.56;;;26.48;51.33
7962;BME280;4026;43.652;24.906;2023-09-19T09:00:15;99398.00;;;26.34;51.81
7962;BME280;4026;43.652;24.906;2023-09-19T09:02:43;99395.94;;;26.49;56.03
7962;BME280;4026;43.652;24.906;2023-09-19T09:05:11;99396.75;;;26.56;56.74
7962;BME280;4026;43.652;24.906;2023-09-19T09:07:39;99400.78;;;26.46;53.92
7962;BME280;4026;43.652;24.906;2023-09-19T09:10:07;99397.41;;;26.38;56.04
7962;BME280;4026;43.652;24.906;2023-09-19T09:12:35;99396.03;;;26.16;55.22
7962;BME280;4026;43.652;24.906;2023-09-19T09:15:05;99397.63;;;26.17;57.88
7962;BME280;4026;43.652;24.906;2023-09-19T09:17:34;99397.84;;;25.89;57.65
7962;BME280;4026;43.652;24.906;2023-09-19T09:20:01;99400.28;;;25.84;58.28
7962;BME280;4026;43.652;24.906;2023-09-19T09:22:30;99396.25;;;25.74;60.21
7962;BME280;4026;43.652;24.906;2023-09-19T09:24:59;99386.75;;;25.67;63.41
7962;BME280;4026;43.652;24.906;2023-09-19T09:27:29;99384.72;;;25.62;63.22
7962;BME280;4026;43.652;24.906;2023-09-19T09:29:57;99387.53;;;25.47;60.75
7962;BME280;4026;43.652;24.906;2023-09-19T09:32:25;99392.56;;;25.29;59.88
7962;BME280;4026;43.652;24.906;2023-09-19T09:34:56;99395.97;;;25.23;66.28
7962;BME280;4026;43.652;24.906;2023-09-19T09:37:23;99388.13;;;25.23;67.50
7962;BME280;4026;43.652;24.906;2023-09-19T09:39:53;99393.97;;;25.25;67.64
7962;BME280;4026;43.652;24.906;2023-09-19T09:42:33;99395.72;;;25.11;61.27
7962;BME280;4026;43.652;24.906;2023-09-19T09:45:14;99402.41;;;25.20;62.63
7962;BME280;4026;43.652;24.906;2023-09-19T09:47:42;99402.41;;;25.27;62.43
7962;BME280;4026;43.652;24.906;2023-09-19T09:50:26;99394.16;;;25.23;68.24
7962;BME280;4026;43.652;24.906;2023-09-19T09:53:19;99397.19;;;25.34;65.09
7962;BME280;4026;43.652;24.906;2023-09-19T09:56:03;99407.28;;;25.50;67.86
7962;BME280;4026;43.652;24.906;2023-09-19T09:58:33;99411.72;;;25.49;67.17
7962;BME280;4026;43.652;24.906;2023-09-19T10:01:01;99402.47;;;25.53;66.79
7962;BME280;4026;43.652;24.906;2023-09-19T10:03:35;99402.06;;;25.57;64.33
7962;BME280;4026;43.652;24.906;2023-09-19T10:06:08;99407.69;;;25.53;61.10
7962;BME280;4026;43.652;24.906;2023-09-19T10:09:04;99406.50;;;25.63;62.54
7962;BME280;4026;43.652;24.906;2023-09-19T10:11:43;99407.31;;;25.63;57.80
7962;BME280;4026;43.652;24.906;2023-09-19T10:14:13;99405.09;;;25.67;58.26
7962;BME280;4026;43.652;24.906;2023-09-19T10:16:45;99404.28;;;25.73;59.83
7962;BME280;4026;43.652;24.906;2023-09-19T10:19:16;99400.84;;;25.79;57.21
7962;BME280;4026;43.652;24.906;2023-09-19T10:21:46;99398.47;;;25.91;55.94
7962;BME280;4026;43.652;24.906;2023-09-19T10:24:14;99400.03;;;26.12;59.05
7962;BME280;4026;43.652;24.906;2023-09-19T10:26:43;99405.72;;;26.15;54.05
7962;BME280;4026;43.652;24.906;2023-09-19T10:29:13;99393.94;;;26.38;56.28
7962;BME280;4026;43.652;24.906;2023-09-19T10:31:42;99391.91;;;26.60;52.68
7962;BME280;4026;43.652;24.906;2023-09-19T10:34:14;99393.81;;;26.84;50.85
7962;BME280;4026;43.652;24.906;2023-09-19T10:36:44;99392.59;;;26.87;52.38
7962;BME280;4026;43.652;24.906;2023-09-19T10:39:14;99396.00;;;26.94;49.85
7962;BME280;4026;43.652;24.906;2023-09-19T10:41:49;99386.72;;;27.30;49.97
7962;BME280;4026;43.652;24.906;2023-09-19T10:44:21;99392.97;;;27.61;46.97
7962;BME280;4026;43.652;24.906;2023-09-19T10:46:51;99389.19;;;27.82;42.34
7962;BME280;4026;43.652;24.906;2023-09-19T10:49:19;99387.72;;;27.86;40.36
7962;BME280;4026;43.652;24.906;2023-09-19T10:51:46;99379.72;;;27.99;39.32
7962;BME280;4026;43.652;24.906;2023-09-19T10:54:16;99383.06;;;27.88;35.90
7962;BME280;4026;43.652;24.906;2023-09-19T10:56:48;99384.38;;;27.79;38.90
7962;BME280;4026;43.652;24.906;2023-09-19T10:59:17;99380.47;;;27.56;40.14
7962;BME280;4026;43.652;24.906;2023-09-19T11:01:46;99386.47;;;27.38;40.49
7962;BME280;4026;43.652;24.906;2023-09-19T11:04:23;99377.19;;;27.36;41.69
7962;BME280;4026;43.652;24.906;2023-09-19T11:07:01;99369.16;;;27.56;45.18
7962;BME280;4026;43.652;24.906;2023-09-19T11:09:47;99371.22;;;27.79;43.04
7962;BME280;4026;43.652;24.906;2023-09-19T11:12:50;99372.50;;;27.69;43.13
7962;BME280;4026;43.652;24.906;2023-09-19T11:18:53;99365.03;;;27.66;44.93
7962;BME280;4026;43.652;24.906;2023-09-19T11:21:52;99365.44;;;27.63;44.76
7962;BME280;4026;43.652;24.906;2023-09-19T11:24:29;99367.13;;;27.33;45.73
7962;BME280;4026;43.652;24.906;2023-09-19T11:27:12;99360.41;;;27.37;47.33
7962;BME280;4026;43.652;24.906;2023-09-19T11:29:40;99363.22;;;27.42;46.63
7962;BME280;4026;43.652;24.906;2023-09-19T11:32:07;99355.50;;;27.47;45.94
7962;BME280;4026;43.652;24.906;2023-09-19T11:34:44;99349.22;;;27.23;44.17
7962;BME280;4026;43.652;24.906;2023-09-19T11:40:28;99352.06;;;27.15;48.12
7962;BME280;4026;43.652;24.906;2023-09-19T11:42:56;99354.63;;;26.90;46.44
7962;BME280;4026;43.652;24.906;2023-09-19T11:48:28;99348.53;;;26.96;46.47
7962;BME280;4026;43.652;24.906;2023-09-19T11:50:57;99354.91;;;27.13;43.42
7962;BME280;4026;43.652;24.906;2023-09-19T11:53:31;99347.81;;;27.14;42.80
7962;BME280;4026;43.652;24.906;2023-09-19T11:56:04;99345.78;;;27.22;42.20
7962;BME280;4026;43.652;24.906;2023-09-19T11:58:36;99340.13;;;27.50;44.45
7962;BME280;4026;43.652;24.906;2023-09-19T12:01:05;99333.94;;;27.63;43.68
7962;BME280;4026;43.652;24.906;2023-09-19T12:03:42;99326.84;;;27.89;43.19
7962;BME280;4026;43.652;24.906;2023-09-19T12:06:14;99321.19;;;28.10;44.19
7962;BME280;4026;43.652;24.906;2023-09-19T12:08:41;99322.34;;;28.14;41.32
7962;BME280;4026;43.652;24.906;2023-09-19T12:11:13;99326.94;;;28.19;39.78
7962;BME280;4026;43.652;24.906;2023-09-19T12:13:42;99333.88;;;28.32;41.17
7962;BME280;4026;43.652;24.906;2023-09-19T12:16:13;99324.31;;;28.37;38.26
7962;BME280;4026;43.652;24.906;2023-09-19T12:18:41;99326.28;;;28.42;38.13
7962;BME280;4026;43.652;24.906;2023-09-19T12:21:26;99307.81;;;28.49;41.19
7962;BME280;4026;43.652;24.906;2023-09-19T12:24:05;99312.97;;;28.37;35.93
7962;BME280;4026;43.652;24.906;2023-09-19T12:26:41;99308.25;;;28.09;35.63
7962;BME280;4026;43.652;24.906;2023-09-19T12:29:16;99308.78;;;27.74;36.00
7962;BME280;4026;43.652;24.906;2023-09-19T12:31:51;99309.75;;;27.54;35.50
7962;BME280;4026;43.652;24.906;2023-09-19T12:34:21;99298.41;;;27.61;39.37
7962;BME280;4026;43.652;24.906;2023-09-19T12:37:03;99313.06;;;27.50;37.86
7962;BME280;4026;43.652;24.906;2023-09-19T12:39:30;99306.06;;;27.62;40.09
7962;BME280;4026;43.652;24.906;2023-09-19T12:41:57;99305.91;;;27.82;40.01
7962;BME280;4026;43.652;24.906;2023-09-19T12:44:24;99311.38;;;27.81;38.58
7962;BME280;4026;43.652;24.906;2023-09-19T12:46:51;99313.34;;;27.60;37.78
7962;BME280;4026;43.652;24.906;2023-09-19T12:49:20;99309.47;;;27.44;39.21
7962;BME280;4026;43.652;24.906;2023-09-19T12:51:50;99303.75;;;27.22;39.60
7962;BME280;4026;43.652;24.906;2023-09-19T12:54:22;99310.25;;;26.88;36.93
7962;BME280;4026;43.652;24.906;2023-09-19T12:56:50;99301.56;;;26.56;39.94
7962;BME280;4026;43.652;24.906;2023-09-19T12:59:29;99307.59;;;26.50;41.70
7962;BME280;4026;43.652;24.906;2023-09-19T13:02:03;99299.19;;;26.34;40.87
7962;BME280;4026;43.652;24.906;2023-09-19T13:04:31;99296.13;;;26.37;40.71
7962;BME280;4026;43.652;24.906;2023-09-19T13:07:01;99289.63;;;26.47;43.14
7962;BME280;4026;43.652;24.906;2023-09-19T13:09:28;99281.00;;;26.39;42.06
7962;BME280;4026;43.652;24.906;2023-09-19T13:12:00;99290.84;;;26.44;42.82
7962;BME280;4026;43.652;24.906;2023-09-19T13:14:28;99278.63;;;26.31;40.06
7962;BME280;4026;43.652;24.906;2023-09-19T13:16:59;99273.81;;;26.28;43.25
7962;BME280;4026;43.652;24.906;2023-09-19T13:19:42;99265.97;;;26.22;42.28
7962;BME280;4026;43.652;24.906;2023-09-19T13:22:37;99270.00;;;26.24;42.74
7962;BME280;4026;43.652;24.906;2023-09-19T13:25:05;99271.81;;;26.17;42.43
7962;BME280;4026;43.652;24.906;2023-09-19T13:27:33;99263.16;;;26.16;42.17
7962;BME280;4026;43.652;24.906;2023-09-19T13:30:00;99260.75;;;26.15;40.90
7962;BME280;4026;43.652;24.906;2023-09-19T13:32:27;99262.59;;;26.08;41.73